sensor_id;sensor_type;location;lat;lon;timestamp;P1;durP1;ratioP1;P2;durP2;ratioP2
21806;SDS011;11065;50.786;7.840;2022-11-03T00:02:03;7.63;;;3.77;;
21806;SDS011;11065;50.786;7.840;2022-11-03T00:04:29;7.80;;;3.77;;
21806;SDS011;11065;50.786;7.840;2022-11-03T00:06:56;7.50;;;3.80;;
21806;SDS011;11065;50.786;7.840;2022-11-03T00:09:23;6.60;;;3.23;;
21806;SDS011;11065;50.786;7.840;2022-11-03T00:11:52;6.13;;;2.90;;
21806;SDS011;11065;50.786;7.840;2022-11-03T00:14:19;7.67;;;3.77;;
21806;SDS011;11065;50.786;7.840;2022-11-03T00:16:46;6.37;;;3.20;;
21806;SDS011;11065;50.786;7.840;2022-11-03T00:19:13;5.87;;;3.40;;
21806;SDS011;11065;50.786;7.840;2022-11-03T00:21:41;5.27;;;3.00;;
21806;SDS011;11065;50.786;7.840;2022-11-03T00:24:08;6.70;;;3.27;;
21806;SDS011;11065;50.786;7.840;2022-11-03T00:26:35;5.20;;;3.23;;
21806;SDS011;11065;50.786;7.840;2022-11-03T00:29:07;6.17;;;3.03;;
21806;SDS011;11065;50.786;7.840;2022-11-03T00:31:36;5.57;;;2.93;;
21806;SDS011;11065;50.786;7.840;2022-11-03T00:34:04;6.43;;;2.67;;
21806;SDS011;11065;50.786;7.840;2022-11-03T00:36:33;8.07;;;3.07;;
21806;SDS011;11065;50.786;7.840;2022-11-03T00:39:06;7.87;;;2.93;;
21806;SDS011;11065;50.786;7.840;2022-11-03T00:41:33;7.20;;;3.10;;
21806;SDS011;11065;50.786;7.840;2022-11-03T00:44:00;8.27;;;3.67;;
21806;SDS011;11065;50.786;7.840;2022-11-03T00:46:27;5.37;;;3.40;;
21806;SDS011;11065;50.786;7.840;2022-11-03T00:48:55;6.50;;;3.37;;
21806;SDS011;11065;50.786;7.840;2022-11-03T00:51:23;6.57;;;3.17;;
21806;SDS011;11065;50.786;7.840;2022-11-03T00:53:53;7.00;;;3.40;;
21806;SDS011;11065;50.786;7.840;2022-11-03T00:56:31;6.00;;;3.17;;
21806;SDS011;11065;50.786;7.840;2022-11-03T00:59:00;5.53;;;3.13;;
21806;SDS011;11065;50.786;7.840;2022-11-03T01:01:29;7.43;;;2.93;;
21806;SDS011;11065;50.786;7.840;2022-11-03T01:03:59;5.40;;;2.90;;
21806;SDS011;11065;50.786;7.840;2022-11-03T01:06:46;5.97;;;3.30;;
21806;SDS011;11065;50.786;7.840;2022-11-03T01:09:27;7.10;;;2.83;;
21806;SDS011;11065;50.786;7.840;2022-11-03T01:12:10;6.27;;;2.53;;
21806;SDS011;11065;50.786;7.840;2022-11-03T01:17:23;5.47;;;2.80;;
21806;SDS011;11065;50.786;7.840;2022-11-03T01:19:51;6.07;;;2.70;;
21806;SDS011;11065;50.786;7.840;2022-11-03T01:22:19;7.67;;;2.80;;
21806;SDS011;11065;50.786;7.840;2022-11-03T01:24:47;8.67;;;3.20;;
21806;SDS011;11065;50.786;7.840;2022-11-03T01:27:15;10.40;;;3.93;;
21806;SDS011;11065;50.786;7.840;2022-11-03T01:29:43;6.20;;;2.87;;
21806;SDS011;11065;50.786;7.840;2022-11-03T01:32:10;5.37;;;2.60;;
21806;SDS011;11065;50.786;7.840;2022-11-03T01:34:37;8.93;;;2.70;;
21806;SDS011;11065;50.786;7.840;2022-11-03T01:37:04;5.83;;;2.40;;
21806;SDS011;11065;50.786;7.840;2022-11-03T01:39:31;5.13;;;2.67;;
21806;SDS011;11065;50.786;7.840;2022-11-03T01:41:58;3.97;;;2.30;;
21806;SDS011;11065;50.786;7.840;2022-11-03T01:44:26;7.17;;;2.43;;
21806;SDS011;11065;50.786;7.840;2022-11-03T01:49:54;5.37;;;2.33;;
21806;SDS011;11065;50.786;7.840;2022-11-03T01:52:33;5.47;;;2.10;;
21806;SDS011;11065;50.786;7.840;2022-11-03T01:55:11;5.33;;;1.93;;
21806;SDS011;11065;50.786;7.840;2022-11-03T01:57:41;5.57;;;2.27;;
21806;SDS011;11065;50.786;7.840;2022-11-03T02:00:12;5.90;;;2.30;;
21806;SDS011;11065;50.786;7.840;2022-11-03T02:02:40;4.97;;;2.07;;
21806;SDS011;11065;50.786;7.840;2022-11-03T02:05:07;7.33;;;2.20;;
21806;SDS011;11065;50.786;7.840;2022-11-03T02:07:39;6.03;;;2.50;;
21806;SDS011;11065;50.786;7.840;2022-11-03T02:10:16;4.70;;;2.00;;
21806;SDS011;11065;50.786;7.840;2022-11-03T02:12:43;6.17;;;2.53;;
21806;SDS011;11065;50.786;7.840;2022-11-03T02:15:12;7.70;;;2.70;;
21806;SDS011;11065;50.786;7.840;2022-11-03T02:17:40;7.70;;;3.07;;
21806;SDS011;11065;50.786;7.840;2022-11-03T02:20:11;5.00;;;2.37;;
21806;SDS011;11065;50.786;7.840;2022-11-03T02:27:56;6.37;;;2.90;;
21806;SDS011;11065;50.786;7.840;2022-11-03T02:30:25;6.23;;;2.87;;
21806;SDS011;11065;50.786;7.840;2022-11-03T02:33:07;5.60;;;2.70;;
21806;SDS011;11065;50.786;7.840;2022-11-03T02:35:48;5.43;;;2.17;;
21806;SDS011;11065;50.786;7.840;2022-11-03T02:38:22;4.83;;;2.20;;
21806;SDS011;11065;50.786;7.840;2022-11-03T02:40:53;4.23;;;2.23;;
21806;SDS011;11065;50.786;7.840;2022-11-03T02:43:22;5.20;;;2.43;;
21806;SDS011;11065;50.786;7.840;2022-11-03T02:45:50;6.57;;;2.83;;
21806;SDS011;11065;50.786;7.840;2022-11-03T02:48:18;4.17;;;2.50;;
21806;SDS011;11065;50.786;7.840;2022-11-03T02:50:45;5.57;;;2.87;;
21806;SDS011;11065;50.786;7.840;2022-11-03T02:53:12;6.90;;;3.47;;
21806;SDS011;11065;50.786;7.840;2022-11-03T03:03:48;7.00;;;3.20;;
21806;SDS011;11065;50.786;7.840;2022-11-03T03:06:21;6.93;;;2.93;;
21806;SDS011;11065;50.786;7.840;2022-11-03T03:09:23;8.40;;;2.93;;
21806;SDS011;11065;50.786;7.840;2022-11-03T03:11:52;4.90;;;2.67;;
21806;SDS011;11065;50.786;7.840;2022-11-03T03:14:24;6.40;;;2.70;;
21806;SDS011;11065;50.786;7.840;2022-11-03T03:17:00;7.20;;;2.60;;
21806;SDS011;11065;50.786;7.840;2022-11-03T03:19:39;7.07;;;3.10;;
21806;SDS011;11065;50.786;7.840;2022-11-03T03:22:23;4.93;;;2.50;;
21806;SDS011;11065;50.786;7.840;2022-11-03T03:25:02;4.83;;;2.73;;
21806;SDS011;11065;50.786;7.840;2022-11-03T03:27:42;5.73;;;2.70;;
21806;SDS011;11065;50.786;7.840;2022-11-03T03:30:14;7.20;;;2.70;;
21806;SDS011;11065;50.786;7.840;2022-11-03T03:32:44;9.23;;;2.57;;
21806;SDS011;11065;50.786;7.840;2022-11-03T03:35:15;6.03;;;2.53;;
21806;SDS011;11065;50.786;7.840;2022-11-03T03:37:46;5.80;;;2.30;;
21806;SDS011;11065;50.786;7.840;2022-11-03T03:40:16;5.17;;;2.10;;
21806;SDS011;11065;50.786;7.840;2022-11-03T03:43:05;4.00;;;1.67;;
21806;SDS011;11065;50.786;7.840;2022-11-03T03:45:35;4.67;;;2.20;;
21806;SDS011;11065;50.786;7.840;2022-11-03T03:48:03;4.63;;;1.97;;
21806;SDS011;11065;50.786;7.840;2022-11-03T03:50:32;5.57;;;1.97;;
21806;SDS011;11065;50.786;7.840;2022-11-03T03:53:02;5.67;;;2.20;;
21806;SDS011;11065;50.786;7.840;2022-11-03T03:55:38;5.33;;;2.03;;
21806;SDS011;11065;50.786;7.840;2022-11-03T03:58:06;3.77;;;1.70;;
21806;SDS011;11065;50.786;7.840;2022-11-03T04:00:35;4.00;;;1.73;;
21806;SDS011;11065;50.786;7.840;2022-11-03T04:03:05;4.37;;;1.70;;
21806;SDS011;11065;50.786;7.840;2022-11-03T04:05:38;6.80;;;1.87;;
21806;SDS011;11065;50.786;7.840;2022-11-03T04:08:05;4.27;;;1.60;;
21806;SDS011;11065;50.786;7.840;2022-11-03T04:10:32;4.07;;;1.50;;
21806;SDS011;11065;50.786;7.840;2022-11-03T04:12:58;3.20;;;1.20;;
21806;SDS011;11065;50.786;7.840;2022-11-03T04:15:44;4.30;;;1.60;;
21806;SDS011;11065;50.786;7.840;2022-11-03T04:18:17;4.33;;;1.60;;
21806;SDS011;11065;50.786;7.840;2022-11-03T04:21:03;5.23;;;1.80;;
21806;SDS011;11065;50.786;7.840;2022-11-03T04:23:49;5.57;;;1.60;;
21806;SDS011;11065;50.786;7.840;2022-11-03T04:26:17;4.03;;;1.53;;
21806;SDS011;11065;50.786;7.840;2022-11-03T04:28:48;3.57;;;1.73;;
21806;SDS011;11065;50.786;7.840;2022-11-03T04:31:17;4.40;;;1.40;;
21806;SDS011;11065;50.786;7.840;2022-11-03T04:33:45;2.97;;;1.50;;
21806;SDS011;11065;50.786;7.840;2022-11-03T04:36:17;5.37;;;1.70;;
21806;SDS011;11065;50.786;7.840;2022-11-03T04:38:51;3.90;;;1.67;;
21806;SDS011;11065;50.786;7.840;2022-11-03T04:41:26;4.87;;;1.93;;
21806;SDS011;11065;50.786;7.840;2022-11-03T04:43:56;2.83;;;1.33;;
21806;SDS011;11065;50.786;7.840;2022-11-03T04:46:24;3.80;;;1.50;;
21806;SDS011;11065;50.786;7.840;2022-11-03T04:48:53;4.07;;;1.53;;
21806;SDS011;11065;50.786;7.840;2022-11-03T04:51:24;5.23;;;1.97;;
21806;SDS011;11065;50.786;7.840;2022-11-03T04:53:53;5.53;;;2.20;;
21806;SDS011;11065;50.786;7.840;2022-11-03T04:56:24;5.17;;;1.77;;
21806;SDS011;11065;50.786;7.840;2022-11-03T04:58:51;5.60;;;1.73;;
21806;SDS011;11065;50.786;7.840;2022-11-03T05:01:20;3.87;;;1.73;;
21806;SDS011;11065;50.786;7.840;2022-11-03T05:03:51;3.73;;;1.53;;
21806;SDS011;11065;50.786;7.840;2022-11-03T05:06:20;6.17;;;1.97;;
21806;SDS011;11065;50.786;7.840;2022-11-03T05:08:57;4.20;;;1.67;;
21806;SDS011;11065;50.786;7.840;2022-11-03T05:11:31;4.37;;;1.70;;
21806;SDS011;11065;50.786;7.840;2022-11-03T05:13:58;4.93;;;1.70;;
21806;SDS011;11065;50.786;7.840;2022-11-03T05:16:27;4.13;;;1.67;;
21806;SDS011;11065;50.786;7.840;2022-11-03T05:18:54;5.40;;;1.73;;
21806;SDS011;11065;50.786;7.840;2022-11-03T05:21:21;4.23;;;2.00;;
21806;SDS011;11065;50.786;7.840;2022-11-03T05:23:53;4.40;;;1.50;;
21806;SDS011;11065;50.786;7.840;2022-11-03T05:26:23;4.23;;;1.30;;
21806;SDS011;11065;50.786;7.840;2022-11-03T05:28:55;4.90;;;1.30;;
21806;SDS011;11065;50.786;7.840;2022-11-03T05:31:26;6.50;;;1.50;;
21806;SDS011;11065;50.786;7.840;2022-11-03T05:33:56;6.70;;;2.50;;
21806;SDS011;11065;50.786;7.840;2022-11-03T05:36:25;5.37;;;2.13;;
21806;SDS011;11065;50.786;7.840;2022-11-03T05:39:15;4.07;;;1.70;;
21806;SDS011;11065;50.786;7.840;2022-11-03T05:41:47;4.00;;;1.40;;
21806;SDS011;11065;50.786;7.840;2022-11-03T05:46:59;7.53;;;1.80;;
21806;SDS011;11065;50.786;7.840;2022-11-03T05:49:43;2.70;;;1.20;;
21806;SDS011;11065;50.786;7.840;2022-11-03T05:52:12;5.03;;;1.67;;
21806;SDS011;11065;50.786;7.840;2022-11-03T05:54:47;3.70;;;1.07;;
21806;SDS011;11065;50.786;7.840;2022-11-03T05:57:15;5.77;;;1.30;;
21806;SDS011;11065;50.786;7.840;2022-11-03T05:59:44;3.50;;;1.23;;
21806;SDS011;11065;50.786;7.840;2022-11-03T06:05:02;4.33;;;1.10;;
21806;SDS011;11065;50.786;7.840;2022-11-03T06:07:36;3.90;;;1.40;;
21806;SDS011;11065;50.786;7.840;2022-11-03T06:10:14;5.57;;;1.50;;
21806;SDS011;11065;50.786;7.840;2022-11-03T06:12:55;7.10;;;1.40;;
21806;SDS011;11065;50.786;7.840;2022-11-03T06:15:30;4.57;;;1.30;;
21806;SDS011;11065;50.786;7.840;2022-11-03T06:17:59;4.23;;;1.20;;
21806;SDS011;11065;50.786;7.840;2022-11-03T06:20:35;5.50;;;1.10;;
21806;SDS011;11065;50.786;7.840;2022-11-03T06:23:02;4.70;;;1.53;;
21806;SDS011;11065;50.786;7.840;2022-11-03T06:25:34;5.60;;;1.60;;
21806;SDS011;11065;50.786;7.840;2022-11-03T06:28:03;6.10;;;1.47;;
21806;SDS011;11065;50.786;7.840;2022-11-03T06:30:32;3.57;;;1.60;;
21806;SDS011;11065;50.786;7.840;2022-11-03T06:33:03;6.53;;;1.20;;
21806;SDS011;11065;50.786;7.840;2022-11-03T06:35:38;4.77;;;1.30;;
21806;SDS011;11065;50.786;7.840;2022-11-03T06:38:10;3.60;;;1.30;;
21806;SDS011;11065;50.786;7.840;2022-11-03T06:40:42;5.87;;;1.30;;
21806;SDS011;11065;50.786;7.840;2022-11-03T06:43:17;6.27;;;1.57;;
21806;SDS011;11065;50.786;7.840;2022-11-03T06:45:48;6.23;;;1.17;;
21806;SDS011;11065;50.786;7.840;2022-11-03T06:48:22;4.43;;;1.33;;
21806;SDS011;11065;50.786;7.840;2022-11-03T06:50:54;4.73;;;1.53;;
21806;SDS011;11065;50.786;7.840;2022-11-03T06:53:24;4.30;;;1.20;;
21806;SDS011;11065;50.786;7.840;2022-11-03T06:55:54;6.27;;;1.10;;
21806;SDS011;11065;50.786;7.840;2022-11-03T06:58:33;4.13;;;1.10;;
21806;SDS011;11065;50.786;7.840;2022-11-03T07:01:05;5.07;;;1.20;;
21806;SDS011;11065;50.786;7.840;2022-11-03T07:03:40;5.43;;;1.17;;
21806;SDS011;11065;50.786;7.840;2022-11-03T07:08:38;5.43;;;1.10;;
21806;SDS011;11065;50.786;7.840;2022-11-03T07:13:48;4.50;;;1.70;;
21806;SDS011;11065;50.786;7.840;2022-11-03T07:18:54;9.47;;;1.73;;
21806;SDS011;11065;50.786;7.840;2022-11-03T07:21:43;3.70;;;1.40;;
21806;SDS011;11065;50.786;7.840;2022-11-03T07:24:24;3.57;;;1.37;;
21806;SDS011;11065;50.786;7.840;2022-11-03T07:29:52;4.77;;;1.30;;
21806;SDS011;11065;50.786;7.840;2022-11-03T07:32:24;3.97;;;1.30;;
21806;SDS011;11065;50.786;7.840;2022-11-03T07:34:58;4.77;;;1.77;;
21806;SDS011;11065;50.786;7.840;2022-11-03T07:37:46;5.40;;;1.73;;
21806;SDS011;11065;50.786;7.840;2022-11-03T07:40:15;5.50;;;1.40;;
21806;SDS011;11065;50.786;7.840;2022-11-03T07:42:45;5.27;;;1.73;;
21806;SDS011;11065;50.786;7.840;2022-11-03T07:48:24;6.47;;;2.50;;
21806;SDS011;11065;50.786;7.840;2022-11-03T07:50:55;5.47;;;2.53;;
21806;SDS011;11065;50.786;7.840;2022-11-03T07:53:29;6.60;;;2.90;;
21806;SDS011;11065;50.786;7.840;2022-11-03T07:56:14;7.23;;;2.10;;
21806;SDS011;11065;50.786;7.840;2022-11-03T07:58:45;6.73;;;1.60;;
21806;SDS011;11065;50.786;7.840;2022-11-03T08:01:24;5.77;;;1.80;;
21806;SDS011;11065;50.786;7.840;2022-11-03T08:03:54;4.23;;;1.43;;
21806;SDS011;11065;50.786;7.840;2022-11-03T08:06:24;3.17;;;1.20;;
21806;SDS011;11065;50.786;7.840;2022-11-03T08:08:50;7.17;;;2.10;;
21806;SDS011;11065;50.786;7.840;2022-11-03T08:11:17;6.10;;;1.93;;
21806;SDS011;11065;50.786;7.840;2022-11-03T08:13:49;7.00;;;1.90;;
21806;SDS011;11065;50.786;7.840;2022-11-03T08:16:17;7.17;;;1.50;;
21806;SDS011;11065;50.786;7.840;2022-11-03T08:18:44;5.27;;;1.83;;
21806;SDS011;11065;50.786;7.840;2022-11-03T08:21:11;7.57;;;1.67;;
21806;SDS011;11065;50.786;7.840;2022-11-03T08:23:39;5.60;;;1.60;;
21806;SDS011;11065;50.786;7.840;2022-11-03T08:26:12;5.43;;;1.50;;
21806;SDS011;11065;50.786;7.840;2022-11-03T08:28:39;6.47;;;1.87;;
21806;SDS011;11065;50.786;7.840;2022-11-03T08:31:05;5.17;;;1.30;;
21806;SDS011;11065;50.786;7.840;2022-11-03T08:33:38;6.60;;;1.37;;
21806;SDS011;11065;50.786;7.840;2022-11-03T08:36:05;6.27;;;1.37;;
21806;SDS011;11065;50.786;7.840;2022-11-03T08:38:33;5.93;;;1.63;;
21806;SDS011;11065;50.786;7.840;2022-11-03T08:41:00;3.17;;;1.30;;
21806;SDS011;11065;50.786;7.840;2022-11-03T08:43:28;5.03;;;2.03;;
21806;SDS011;11065;50.786;7.840;2022-11-03T08:45:55;4.93;;;1.40;;
21806;SDS011;11065;50.786;7.840;2022-11-03T08:48:28;6.27;;;1.67;;
21806;SDS011;11065;50.786;7.840;2022-11-03T08:50:55;5.97;;;1.80;;
21806;SDS011;11065;50.786;7.840;2022-11-03T08:53:23;4.63;;;1.00;;
21806;SDS011;11065;50.786;7.840;2022-11-03T08:55:51;6.17;;;1.40;;
21806;SDS011;11065;50.786;7.840;2022-11-03T08:58:19;5.27;;;1.50;;
21806;SDS011;11065;50.786;7.840;2022-11-03T09:00:47;4.83;;;1.40;;
21806;SDS011;11065;50.786;7.840;2022-11-03T09:03:14;4.77;;;1.40;;
21806;SDS011;11065;50.786;7.840;2022-11-03T09:05:41;5.23;;;1.40;;
21806;SDS011;11065;50.786;7.840;2022-11-03T09:08:07;7.10;;;1.33;;
21806;SDS011;11065;50.786;7.840;2022-11-03T09:10:54;2.50;;;0.90;;
21806;SDS011;11065;50.786;7.840;2022-11-03T09:13:21;7.17;;;1.47;;
21806;SDS011;11065;50.786;7.840;2022-11-03T09:15:48;4.03;;;1.43;;
21806;SDS011;11065;50.786;7.840;2022-11-03T09:18:14;5.37;;;1.83;;
21806;SDS011;11065;50.786;7.840;2022-11-03T09:20:42;8.03;;;1.53;;
21806;SDS011;11065;50.786;7.840;2022-11-03T09:23:09;5.17;;;1.53;;
21806;SDS011;11065;50.786;7.840;2022-11-03T09:25:36;4.47;;;1.20;;
21806;SDS011;11065;50.786;7.840;2022-11-03T09:28:04;4.50;;;1.47;;
21806;SDS011;11065;50.786;7.840;2022-11-03T09:30:31;3.50;;;1.40;;
21806;SDS011;11065;50.786;7.840;2022-11-03T09:32:58;6.68;;;1.90;;
21806;SDS011;11065;50.786;7.840;2022-11-03T09:35:25;3.95;;;1.52;;
21806;SDS011;11065;50.786;7.840;2022-11-03T09:37:51;3.75;;;1.52;;
21806;SDS011;11065;50.786;7.840;2022-11-03T09:40:18;4.50;;;1.50;;
21806;SDS011;11065;50.786;7.840;2022-11-03T09:42:46;4.18;;;1.30;;
21806;SDS011;11065;50.786;7.840;2022-11-03T09:45:13;4.68;;;1.70;;
21806;SDS011;11065;50.786;7.840;2022-11-03T09:47:40;3.07;;;1.03;;
21806;SDS011;11065;50.786;7.840;2022-11-03T09:50:12;4.27;;;1.50;;
21806;SDS011;11065;50.786;7.840;2022-11-03T09:52:41;4.17;;;1.30;;
21806;SDS011;11065;50.786;7.840;2022-11-03T09:55:17;7.00;;;1.47;;
21806;SDS011;11065;50.786;7.840;2022-11-03T09:57:48;7.60;;;1.73;;
21806;SDS011;11065;50.786;7.840;2022-11-03T10:00:18;4.33;;;1.60;;
21806;SDS011;11065;50.786;7.840;2022-11-03T10:02:47;5.63;;;1.30;;
21806;SDS011;11065;50.786;7.840;2022-11-03T10:05:19;6.60;;;1.70;;
21806;SDS011;11065;50.786;7.840;2022-11-03T10:07:59;3.77;;;1.23;;
21806;SDS011;11065;50.786;7.840;2022-11-03T10:10:32;4.57;;;1.40;;
21806;SDS011;11065;50.786;7.840;2022-11-03T10:13:00;4.47;;;1.30;;
21806;SDS011;11065;50.786;7.840;2022-11-03T10:15:27;5.53;;;1.30;;
21806;SDS011;11065;50.786;7.840;2022-11-03T10:17:54;2.80;;;1.10;;
21806;SDS011;11065;50.786;7.840;2022-11-03T10:20:22;5.73;;;1.67;;
21806;SDS011;11065;50.786;7.840;2022-11-03T10:22:49;4.70;;;1.50;;
21806;SDS011;11065;50.786;7.840;2022-11-03T10:25:29;3.40;;;1.60;;
21806;SDS011;11065;50.786;7.840;2022-11-03T10:33:41;6.13;;;1.57;;
21806;SDS011;11065;50.786;7.840;2022-11-03T10:36:37;4.23;;;1.60;;
21806;SDS011;11065;50.786;7.840;2022-11-03T10:39:21;6.87;;;1.60;;
21806;SDS011;11065;50.786;7.840;2022-11-03T10:41:54;6.67;;;1.80;;
21806;SDS011;11065;50.786;7.840;2022-11-03T10:44:25;3.73;;;1.30;;
21806;SDS011;11065;50.786;7.840;2022-11-03T10:46:54;3.80;;;1.43;;
21806;SDS011;11065;50.786;7.840;2022-11-03T10:49:27;5.13;;;1.80;;
21806;SDS011;11065;50.786;7.840;2022-11-03T10:52:03;4.73;;;1.80;;
21806;SDS011;11065;50.786;7.840;2022-11-03T10:54:51;3.40;;;1.57;;
21806;SDS011;11065;50.786;7.840;2022-11-03T10:57:20;4.10;;;1.50;;
21806;SDS011;11065;50.786;7.840;2022-11-03T10:59:49;5.37;;;1.80;;
21806;SDS011;11065;50.786;7.840;2022-11-03T11:02:24;3.13;;;1.60;;
21806;SDS011;11065;50.786;7.840;2022-11-03T11:04:53;5.50;;;1.80;;
21806;SDS011;11065;50.786;7.840;2022-11-03T11:07:33;4.03;;;1.60;;
21806;SDS011;11065;50.786;7.840;2022-11-03T11:10:14;5.33;;;2.00;;
21806;SDS011;11065;50.786;7.840;2022-11-03T11:15:58;2.83;;;1.20;;
21806;SDS011;11065;50.786;7.840;2022-11-03T11:20:53;3.20;;;1.43;;
21806;SDS011;11065;50.786;7.840;2022-11-03T11:31:34;5.50;;;1.60;;
21806;SDS011;11065;50.786;7.840;2022-11-03T11:42:05;4.77;;;1.70;;
21806;SDS011;11065;50.786;7.840;2022-11-03T11:50:24;3.17;;;1.20;;
21806;SDS011;11065;50.786;7.840;2022-11-03T11:53:08;7.27;;;1.93;;
21806;SDS011;11065;50.786;7.840;2022-11-03T11:55:47;6.03;;;1.50;;
21806;SDS011;11065;50.786;7.840;2022-11-03T11:58:18;3.27;;;1.40;;
21806;SDS011;11065;50.786;7.840;2022-11-03T12:00:50;4.30;;;1.97;;
21806;SDS011;11065;50.786;7.840;2022-11-03T12:03:23;4.40;;;1.80;;
21806;SDS011;11065;50.786;7.840;2022-11-03T12:05:53;5.03;;;1.63;;
21806;SDS011;11065;50.786;7.840;2022-11-03T12:08:25;3.70;;;1.63;;
21806;SDS011;11065;50.786;7.840;2022-11-03T12:10:57;4.50;;;1.53;;
21806;SDS011;11065;50.786;7.840;2022-11-03T12:16:25;6.80;;;1.70;;
21806;SDS011;11065;50.786;7.840;2022-11-03T12:18:53;4.37;;;1.27;;
21806;SDS011;11065;50.786;7.840;2022-11-03T12:24:33;3.10;;;1.40;;
21806;SDS011;11065;50.786;7.840;2022-11-03T12:27:14;2.87;;;1.23;;
21806;SDS011;11065;50.786;7.840;2022-11-03T12:29:44;4.97;;;1.50;;
21806;SDS011;11065;50.786;7.840;2022-11-03T12:32:10;3.13;;;1.80;;
21806;SDS011;11065;50.786;7.840;2022-11-03T12:34:58;3.53;;;1.10;;
21806;SDS011;11065;50.786;7.840;2022-11-03T12:37:24;3.57;;;1.33;;
21806;SDS011;11065;50.786;7.840;2022-11-03T12:39:51;5.57;;;1.30;;
21806;SDS011;11065;50.786;7.840;2022-11-03T12:42:18;3.73;;;1.30;;
21806;SDS011;11065;50.786;7.840;2022-11-03T12:44:46;3.80;;;1.13;;
21806;SDS011;11065;50.786;7.840;2022-11-03T12:47:13;4.67;;;1.50;;
21806;SDS011;11065;50.786;7.840;2022-11-03T12:49:39;4.50;;;1.67;;
21806;SDS011;11065;50.786;7.840;2022-11-03T12:52:06;3.53;;;1.27;;
21806;SDS011;11065;50.786;7.840;2022-11-03T12:54:34;4.03;;;1.40;;
21806;SDS011;11065;50.786;7.840;2022-11-03T12:57:00;4.77;;;1.77;;
21806;SDS011;11065;50.786;7.840;2022-11-03T12:59:28;3.93;;;1.37;;
21806;SDS011;11065;50.786;7.840;2022-11-03T13:01:55;5.00;;;1.23;;
21806;SDS011;11065;50.786;7.840;2022-11-03T13:04:22;5.23;;;1.60;;
21806;SDS011;11065;50.786;7.840;2022-11-03T13:06:48;4.20;;;1.50;;
21806;SDS011;11065;50.786;7.840;2022-11-03T13:09:15;4.87;;;1.60;;
21806;SDS011;11065;50.786;7.840;2022-11-03T13:11:42;7.10;;;1.70;;
21806;SDS011;11065;50.786;7.840;2022-11-03T13:14:27;4.67;;;1.40;;
21806;SDS011;11065;50.786;7.840;2022-11-03T13:16:54;2.93;;;1.30;;
21806;SDS011;11065;50.786;7.840;2022-11-03T13:19:21;4.60;;;1.53;;
21806;SDS011;11065;50.786;7.840;2022-11-03T13:21:48;4.40;;;1.40;;
21806;SDS011;11065;50.786;7.840;2022-11-03T13:24:14;3.57;;;1.37;;
21806;SDS011;11065;50.786;7.840;2022-11-03T13:26:41;4.30;;;1.50;;
21806;SDS011;11065;50.786;7.840;2022-11-03T13:29:08;4.50;;;1.73;;
21806;SDS011;11065;50.786;7.840;2022-11-03T13:31:35;4.03;;;1.63;;
21806;SDS011;11065;50.786;7.840;2022-11-03T13:34:02;4.83;;;1.37;;
21806;SDS011;11065;50.786;7.840;2022-11-03T13:36:28;4.73;;;1.73;;
21806;SDS011;11065;50.786;7.840;2022-11-03T13:38:55;7.23;;;2.00;;
21806;SDS011;11065;50.786;7.840;2022-11-03T13:41:22;4.07;;;1.60;;
21806;SDS011;11065;50.786;7.840;2022-11-03T13:43:48;4.90;;;1.67;;
21806;SDS011;11065;50.786;7.840;2022-11-03T13:46:15;3.77;;;1.50;;
21806;SDS011;11065;50.786;7.840;2022-11-03T13:48:42;4.57;;;2.00;;
21806;SDS011;11065;50.786;7.840;2022-11-03T13:51:29;4.20;;;1.77;;
21806;SDS011;11065;50.786;7.840;2022-11-03T13:53:56;4.47;;;1.60;;
21806;SDS011;11065;50.786;7.840;2022-11-03T13:56:42;4.23;;;1.70;;
21806;SDS011;11065;50.786;7.840;2022-11-03T13:59:29;4.90;;;1.50;;
21806;SDS011;11065;50.786;7.840;2022-11-03T14:01:56;3.60;;;1.60;;
21806;SDS011;11065;50.786;7.840;2022-11-03T14:04:42;4.23;;;1.53;;
21806;SDS011;11065;50.786;7.840;2022-11-03T14:07:10;3.47;;;1.40;;
21806;SDS011;11065;50.786;7.840;2022-11-03T14:09:37;4.30;;;1.37;;
21806;SDS011;11065;50.786;7.840;2022-11-03T14:12:04;4.77;;;1.50;;
21806;SDS011;11065;50.786;7.840;2022-11-03T14:14:49;5.70;;;1.70;;
21806;SDS011;11065;50.786;7.840;2022-11-03T14:17:16;4.77;;;1.90;;
21806;SDS011;11065;50.786;7.840;2022-11-03T14:19:43;4.57;;;1.63;;
21806;SDS011;11065;50.786;7.840;2022-11-03T14:22:18;4.57;;;1.90;;
21806;SDS011;11065;50.786;7.840;2022-11-03T14:24:49;3.57;;;1.53;;
21806;SDS011;11065;50.786;7.840;2022-11-03T14:27:17;4.60;;;2.03;;
21806;SDS011;11065;50.786;7.840;2022-11-03T14:29:45;4.17;;;1.57;;
21806;SDS011;11065;50.786;7.840;2022-11-03T14:32:15;3.13;;;1.57;;
21806;SDS011;11065;50.786;7.840;2022-11-03T14:34:43;4.13;;;1.20;;
21806;SDS011;11065;50.786;7.840;2022-11-03T14:37:10;5.00;;;1.57;;
21806;SDS011;11065;50.786;7.840;2022-11-03T14:39:38;4.87;;;1.60;;
21806;SDS011;11065;50.786;7.840;2022-11-03T14:42:05;5.43;;;2.30;;
21806;SDS011;11065;50.786;7.840;2022-11-03T14:44:40;3.63;;;1.43;;
21806;SDS011;11065;50.786;7.840;2022-11-03T14:47:10;3.27;;;1.50;;
21806;SDS011;11065;50.786;7.840;2022-11-03T14:49:38;3.23;;;1.37;;
21806;SDS011;11065;50.786;7.840;2022-11-03T14:52:05;5.53;;;1.73;;
21806;SDS011;11065;50.786;7.840;2022-11-03T14:54:33;3.83;;;1.73;;
21806;SDS011;11065;50.786;7.840;2022-11-03T14:57:00;5.10;;;1.40;;
21806;SDS011;11065;50.786;7.840;2022-11-03T14:59:28;4.40;;;1.80;;
21806;SDS011;11065;50.786;7.840;2022-11-03T15:01:55;5.63;;;1.50;;
21806;SDS011;11065;50.786;7.840;2022-11-03T15:04:23;4.70;;;1.87;;
21806;SDS011;11065;50.786;7.840;2022-11-03T15:06:50;4.17;;;1.60;;
21806;SDS011;11065;50.786;7.840;2022-11-03T15:09:17;3.63;;;1.70;;
21806;SDS011;11065;50.786;7.840;2022-11-03T15:11:44;5.63;;;1.80;;
21806;SDS011;11065;50.786;7.840;2022-11-03T15:14:12;4.70;;;1.70;;
21806;SDS011;11065;50.786;7.840;2022-11-03T15:16:39;4.03;;;1.60;;
21806;SDS011;11065;50.786;7.840;2022-11-03T15:19:06;3.83;;;2.00;;
21806;SDS011;11065;50.786;7.840;2022-11-03T15:21:33;5.70;;;1.70;;
21806;SDS011;11065;50.786;7.840;2022-11-03T15:24:00;4.50;;;1.50;;
21806;SDS011;11065;50.786;7.840;2022-11-03T15:26:48;3.67;;;1.23;;
21806;SDS011;11065;50.786;7.840;2022-11-03T15:29:14;4.00;;;1.70;;
21806;SDS011;11065;50.786;7.840;2022-11-03T15:31:41;3.33;;;1.70;;
21806;SDS011;11065;50.786;7.840;2022-11-03T15:34:13;4.37;;;1.57;;
21806;SDS011;11065;50.786;7.840;2022-11-03T15:36:40;6.57;;;2.00;;
21806;SDS011;11065;50.786;7.840;2022-11-03T15:39:06;3.97;;;1.67;;
21806;SDS011;11065;50.786;7.840;2022-11-03T15:41:33;3.97;;;1.93;;
21806;SDS011;11065;50.786;7.840;2022-11-03T15:44:00;4.23;;;1.80;;
21806;SDS011;11065;50.786;7.840;2022-11-03T15:46:27;4.30;;;1.53;;
21806;SDS011;11065;50.786;7.840;2022-11-03T15:48:53;4.77;;;1.60;;
21806;SDS011;11065;50.786;7.840;2022-11-03T15:51:22;5.43;;;1.60;;
21806;SDS011;11065;50.786;7.840;2022-11-03T15:53:49;4.63;;;1.83;;
21806;SDS011;11065;50.786;7.840;2022-11-03T15:56:23;6.73;;;2.00;;
21806;SDS011;11065;50.786;7.840;2022-11-03T15:58:50;4.10;;;1.80;;
21806;SDS011;11065;50.786;7.840;2022-11-03T16:01:17;5.20;;;1.77;;
21806;SDS011;11065;50.786;7.840;2022-11-03T16:03:44;5.63;;;2.13;;
21806;SDS011;11065;50.786;7.840;2022-11-03T16:06:11;4.23;;;2.00;;
21806;SDS011;11065;50.786;7.840;2022-11-03T16:08:38;5.40;;;1.93;;
21806;SDS011;11065;50.786;7.840;2022-11-03T16:11:04;5.80;;;2.17;;
21806;SDS011;11065;50.786;7.840;2022-11-03T16:13:31;5.33;;;1.80;;
21806;SDS011;11065;50.786;7.840;2022-11-03T16:15:58;5.27;;;2.00;;
21806;SDS011;11065;50.786;7.840;2022-11-03T16:18:25;3.53;;;1.63;;
21806;SDS011;11065;50.786;7.840;2022-11-03T16:20:51;5.00;;;2.00;;
21806;SDS011;11065;50.786;7.840;2022-11-03T16:23:18;4.73;;;2.10;;
21806;SDS011;11065;50.786;7.840;2022-11-03T16:25:45;6.80;;;2.23;;
21806;SDS011;11065;50.786;7.840;2022-11-03T16:28:12;6.50;;;2.20;;